Time;durP1;ratioP1;P1;durP2;ratioP2;P2;SDS_P1;SDS_P2;PMS_P1;PMS_P2;Temp;Humidity;BMP_temperature;BMP_pressure;BME280_temperature;BME280_humidity;BME280_pressure;Samples;Min_cycle;Max_cycle;Signal;HPM_P1;HPM_P2
2023/07/31 00:01:14;;;;;;;24.70;11.07;;;;;;;15.22;100.00;100976.88;4973956;28;20054;-79
2023/07/31 00:03:40;;;;;;;20.45;11.15;;;;;;;15.26;100.00;100985.28;4973924;28;20027;-75
2023/07/31 00:06:05;;;;;;;22.05;10.90;;;;;;;15.57;100.00;101039.13;4973910;28;20022;-80
2023/07/31 00:08:30;;;;;;;22.65;10.70;;;;;;;15.58;100.00;101043.38;4973827;28;20037;-81
2023/07/31 00:10:56;;;;;;;24.50;10.93;;;;;;;15.32;100.00;101000.41;4973635;28;20037;-78
2023/07/31 00:13:21;;;;;;;24.63;10.45;;;;;;;15.60;100.00;101038.03;4955938;28;20043;-76
2023/07/31 00:15:46;;;;;;;20.88;10.60;;;;;;;15.59;100.00;101033.78;4973672;28;20034;-80
2023/07/31 00:18:12;;;;;;;23.00;10.30;;;;;;;15.60;100.00;101038.03;4973769;28;20031;-78
2023/07/31 00:20:37;;;;;;;23.67;10.75;;;;;;;15.59;100.00;101032.00;4973920;28;20031;-80
2023/07/31 00:23:02;;;;;;;20.65;10.38;;;;;;;15.45;100.00;101021.91;4973686;28;20106;-80
2023/07/31 00:25:28;;;;;;;21.13;10.25;;;;;;;15.55;100.00;101033.22;4956182;28;20439;-79
2023/07/31 00:27:53;;;;;;;23.25;10.07;;;;;;;15.39;100.00;101004.16;4973622;28;20510;-77
2023/07/31 00:30:18;;;;;;;24.23;10.45;;;;;;;15.56;100.00;101029.66;4973393;28;20480;-80
2023/07/31 00:32:43;;;;;;;22.38;9.88;;;;;;;15.48;100.00;101016.44;4973784;28;20058;-79
2023/07/31 00:35:09;;;;;;;27.70;11.10;;;;;;;15.36;100.00;100991.41;4973607;28;20115;-80
2023/07/31 00:37:34;;;;;;;21.73;9.35;;;;;;;15.44;100.00;101005.47;4973652;28;20106;-78
2023/07/31 00:40:00;;;;;;;18.15;9.80;;;;;;;15.44;100.00;101004.63;4973990;28;20113;-78
2023/07/31 00:42:25;;;;;;;22.60;9.88;;;;;;;15.59;100.00;101018.19;4977207;28;20030;-79
2023/07/31 00:44:50;;;;;;;20.92;9.63;;;;;;;15.59;100.00;101019.00;4960237;28;20035;-79
2023/07/31 00:47:16;;;;;;;19.27;8.85;;;;;;;15.59;100.00;101021.59;4977071;28;20042;-80
2023/07/31 00:49:41;;;;;;;19.05;9.10;;;;;;;15.56;100.00;101018.44;4977212;28;20499;-80
2023/07/31 00:52:07;;;;;;;22.42;9.43;;;;;;;15.59;100.00;101018.19;4977199;28;20031;-79
2023/07/31 00:54:33;;;;;;;20.15;8.85;;;;;;;15.45;100.00;100995.88;4976955;28;20500;-75
2023/07/31 00:56:59;;;;;;;20.25;8.80;;;;;;;15.56;100.00;101010.63;4976975;28;20030;-80
2023/07/31 00:59:25;;;;;;;19.58;8.77;;;;;;;15.34;100.00;100978.53;4976964;28;20042;-78
2023/07/31 01:01:50;;;;;;;18.38;8.45;;;;;;;15.35;100.00;100982.78;4976980;28;20031;-80
2023/07/31 01:04:16;;;;;;;21.90;8.32;;;;;;;15.55;100.00;101017.63;4976937;28;20465;-79
2023/07/31 01:06:52;;;;;;;20.38;8.05;;;;;;;15.50;100.00;101009.34;4977102;28;20081;-79
2023/07/31 01:09:17;;;;;;;19.73;7.75;;;;;;;15.53;100.00;101014.28;4976800;28;20031;-79
2023/07/31 01:11:48;;;;;;;18.58;7.88;;;;;;;15.53;100.00;101018.66;4976721;28;20361;-78
2023/07/31 01:14:13;;;;;;;18.05;7.57;;;;;;;15.45;100.00;100998.47;4976782;28;20027;-76
2023/07/31 01:16:39;;;;;;;22.30;7.30;;;;;;;15.37;100.00;100987.84;4976571;28;20034;-80
2023/07/31 01:19:06;;;;;;;18.38;7.32;;;;;;;15.50;100.00;101007.56;4976661;28;20499;-80
2023/07/31 01:22:12;;;;;;;20.08;7.13;;;;;;;15.50;100.00;101004.94;4976458;28;20481;-78
2023/07/31 01:25:04;;;;;;;19.13;7.40;;;;;;;15.51;100.00;101016.19;4976707;28;20101;-79
2023/07/31 01:27:34;;;;;;;17.88;6.20;;;;;;;15.47;100.00;101009.59;4976458;28;20049;-79
2023/07/31 01:30:10;;;;;;;23.13;7.03;;;;;;;15.49;100.00;101010.28;4976455;28;20404;-75
2023/07/31 01:32:39;;;;;;;18.50;6.53;;;;;;;15.28;100.00;100978.19;4976473;28;20077;-78
2023/07/31 01:35:05;;;;;;;17.92;7.63;;;;;;;15.38;100.00;100987.72;4976361;28;20027;-77
2023/07/31 01:37:31;;;;;;;21.27;7.15;;;;;;;15.38;100.00;100994.72;4976008;28;20552;-75
2023/07/31 01:39:56;;;;;;;18.23;7.00;;;;;;;15.46;100.00;101003.56;4976313;28;20105;-75
2023/07/31 01:42:22;;;;;;;17.77;6.50;;;;;;;15.41;100.00;100995.28;4975609;28;20392;-75
2023/07/31 01:44:47;;;;;;;16.85;6.65;;;;;;;15.43;100.00;101002.97;4976269;28;20078;-74
2023/07/31 01:47:12;;;;;;;14.65;6.40;;;;;;;15.28;100.00;100970.38;4976185;28;20033;-75
2023/07/31 01:49:38;;;;;;;18.33;6.55;;;;;;;15.28;100.00;100971.22;4976013;28;20058;-76
2023/07/31 01:52:03;;;;;;;15.70;6.55;;;;;;;15.43;100.00;100995.16;4975969;28;20019;-75
2023/07/31 01:54:29;;;;;;;14.07;5.97;;;;;;;15.44;100.00;100994.22;4975912;28;20126;-74
2023/07/31 01:56:54;;;;;;;17.77;6.63;;;;;;;15.44;100.00;100992.44;4976135;28;20114;-75
2023/07/31 01:59:19;;;;;;;17.30;6.30;;;;;;;15.43;100.00;100995.16;4975893;28;20031;-74
2023/07/31 02:01:44;;;;;;;18.00;6.97;;;;;;;15.38;100.00;100987.72;4976042;28;20019;-75
2023/07/31 02:04:10;;;;;;;15.32;6.57;;;;;;;15.32;100.00;100979.59;4975766;28;20373;-76
2023/07/31 02:06:35;;;;;;;16.10;6.55;;;;;;;15.33;100.00;100983.84;4975802;28;20473;-75
2023/07/31 02:09:00;;;;;;;17.30;6.68;;;;;;;15.37;100.00;100987.84;4975836;28;20030;-75
2023/07/31 02:11:26;;;;;;;19.45;6.63;;;;;;;15.32;100.00;100975.19;4975639;28;20031;-75
2023/07/31 02:13:51;;;;;;;18.25;6.60;;;;;;;15.24;100.00;100964.63;4976050;28;20038;-80
2023/07/31 02:16:16;;;;;;;16.38;6.20;;;;;;;15.33;100.00;100971.66;4975658;28;20035;-77
2023/07/31 02:18:42;;;;;;;19.33;6.20;;;;;;;15.21;100.00;100946.63;4958316;28;20150;-78
2023/07/31 02:21:07;;;;;;;19.02;7.40;;;;;;;15.25;100.00;100963.66;4975729;28;20058;-79
2023/07/31 02:23:32;;;;;;;20.48;6.68;;;;;;;15.22;100.00;100966.47;4975684;28;20034;-79
2023/07/31 02:25:58;;;;;;;15.57;6.80;;;;;;;15.21;100.00;100960.47;4975489;28;20102;-80
2023/07/31 02:28:23;;;;;;;19.00;7.22;;;;;;;14.88;100.00;100903.34;4975450;28;20058;-78
2023/07/31 02:30:50;;;;;;;14.95;6.75;;;;;;;15.21;100.00;100959.63;4975099;28;20515;-79
2023/07/31 02:33:16;;;;;;;14.63;6.25;;;;;;;15.15;100.00;100939.34;4975318;28;20039;-79
2023/07/31 02:35:41;;;;;;;18.83;7.50;;;;;;;14.89;100.00;100899.78;4975339;28;20080;-77
2023/07/31 02:38:07;;;;;;;16.02;7.03;;;;;;;15.19;100.00;100948.53;4975289;28;20031;-79
2023/07/31 02:40:32;;;;;;;18.70;7.20;;;;;;;15.24;100.00;100961.16;4975207;28;20051;-80
2023/07/31 02:42:57;;;;;;;15.55;6.72;;;;;;;14.54;100.00;100842.81;4975021;28;20034;-79
2023/07/31 02:45:23;;;;;;;18.52;7.15;;;;;;;15.18;100.00;100952.91;4975426;28;20037;-80
2023/07/31 02:47:48;;;;;;;16.05;6.30;;;;;;;15.22;100.00;100953.47;4975117;28;20391;-80
2023/07/31 02:50:13;;;;;;;16.92;6.50;;;;;;;15.23;100.00;100952.53;4974991;28;20023;-79
2023/07/31 02:52:39;;;;;;;17.05;6.88;;;;;;;14.99;100.00;100911.13;4975003;28;20045;-80
2023/07/31 02:55:05;;;;;;;18.23;6.90;;;;;;;15.17;100.00;100942.63;4957128;28;20038;-79
2023/07/31 02:57:31;;;;;;;16.02;7.00;;;;;;;15.08;100.00;100928.59;4974858;28;20031;-79
2023/07/31 02:59:56;;;;;;;19.33;7.57;;;;;;;15.20;100.00;100944.97;4974847;28;20027;-80
2023/07/31 03:02:22;;;;;;;19.95;7.85;;;;;;;15.11;100.00;100930.94;4974790;28;20034;-79
2023/07/31 03:04:47;;;;;;;18.42;7.15;;;;;;;15.19;100.00;100938.94;4974491;28;20023;-78
2023/07/31 03:07:12;;;;;;;17.60;7.30;;;;;;;14.96;100.00;100911.38;4957346;28;20041;-80
2023/07/31 03:09:37;;;;;;;14.50;6.78;;;;;;;15.03;100.00;100919.47;4974922;28;20023;-80
2023/07/31 03:12:03;;;;;;;16.67;6.68;;;;;;;15.16;100.00;100946.19;4974475;28;20482;-80
2023/07/31 03:14:28;;;;;;;18.95;6.18;;;;;;;15.09;100.00;100934.59;4974424;28;20445;-79
2023/07/31 03:16:54;;;;;;;19.85;6.97;;;;;;;15.08;100.00;100943.38;4974761;28;20066;-79
2023/07/31 03:19:19;;;;;;;19.02;6.95;;;;;;;14.81;100.00;100894.38;4974677;28;20500;-78
2023/07/31 03:21:45;;;;;;;18.42;7.85;;;;;;;15.08;100.00;100932.97;4974559;28;20110;-79
2023/07/31 03:24:12;;;;;;;15.30;6.32;;;;;;;14.79;100.00;100891.91;4974436;28;20031;-80
2023/07/31 03:26:37;;;;;;;17.98;7.28;;;;;;;14.89;100.00;100907.59;4974439;28;20027;-79
2023/07/31 03:29:02;;;;;;;17.30;6.47;;;;;;;15.11;100.00;100943.13;4974056;28;20078;-80
2023/07/31 03:31:28;;;;;;;17.17;7.20;;;;;;;14.89;100.00;100902.41;4974319;28;20050;-80
2023/07/31 03:33:53;;;;;;;17.75;7.05;;;;;;;15.02;100.00;100923.88;4974488;28;20031;-80
2023/07/31 03:36:18;;;;;;;18.35;6.57;;;;;;;15.05;100.00;100928.84;4974224;28;20027;-79
2023/07/31 03:38:44;;;;;;;17.77;7.53;;;;;;;15.00;100.00;100915.38;4974262;28;20025;-79
2023/07/31 03:41:10;;;;;;;17.63;6.65;;;;;;;14.62;100.00;100859.44;4974743;28;20488;-79
2023/07/31 03:43:35;;;;;;;18.02;6.85;;;;;;;14.83;100.00;100884.69;4974192;28;20206;-80
2023/07/31 03:46:02;;;;;;;20.40;7.00;;;;;;;14.99;100.00;100905.09;4974643;28;20149;-80
2023/07/31 03:48:28;;;;;;;19.75;6.93;;;;;;;14.76;100.00;100862.75;4974258;28;20034;-79
2023/07/31 03:50:53;;;;;;;12.80;6.10;;;;;;;14.99;100.00;100902.50;4974285;28;20030;-79
2023/07/31 03:53:18;;;;;;;14.52;6.05;;;;;;;14.82;100.00;100864.81;4974405;28;20361;-79
2023/07/31 03:55:44;;;;;;;15.93;6.38;;;;;;;14.86;100.00;100876.66;4973892;28;20034;-77
2023/07/31 03:58:09;;;;;;;16.80;6.63;;;;;;;14.85;100.00;100868.03;4974092;28;20026;-80
2023/07/31 04:00:34;;;;;;;18.67;7.00;;;;;;;15.00;100.00;100880.72;4973919;28;20105;-79
2023/07/31 04:03:00;;;;;;;18.75;6.30;;;;;;;15.08;100.00;100889.56;4974046;28;20109;-80
2023/07/31 04:05:25;;;;;;;13.25;5.72;;;;;;;14.74;100.00;100812.63;4974011;28;20030;-79
2023/07/31 04:07:51;;;;;;;16.77;6.15;;;;;;;15.12;100.00;100890.97;4973961;28;20373;-79
2023/07/31 04:10:16;;;;;;;16.50;6.93;;;;;;;15.15;100.00;100875.13;4973858;28;20468;-80
2023/07/31 04:12:41;;;;;;;17.70;6.28;;;;;;;15.16;100.00;100876.78;4973856;28;20034;-79
2023/07/31 04:15:07;;;;;;;16.58;5.90;;;;;;;15.18;100.00;100880.06;4974275;28;20022;-80
2023/07/31 04:17:35;;;;;;;15.95;6.57;;;;;;;15.19;100.00;100878.28;4978099;28;20037;-79
2023/07/31 04:20:00;;;;;;;17.10;5.95;;;;;;;15.23;100.00;100881.47;4977860;28;20027;-80
2023/07/31 04:22:26;;;;;;;16.48;5.72;;;;;;;15.24;100.00;100873.56;4977951;28;20451;-78
2023/07/31 04:24:51;;;;;;;14.45;6.68;;;;;;;15.21;100.00;100866.81;4977692;28;20532;-80
2023/07/31 04:27:16;;;;;;;19.60;6.00;;;;;;;15.25;100.00;100867.41;4977727;28;20109;-79
2023/07/31 04:29:44;;;;;;;20.35;6.03;;;;;;;15.18;100.00;100859.25;4977481;28;20417;-80
2023/07/31 04:32:09;;;;;;;17.20;6.28;;;;;;;15.01;100.00;100831.19;4977228;28;20125;-78
2023/07/31 04:34:34;;;;;;;20.05;6.30;;;;;;;15.24;100.00;100860.53;4977436;28;20495;-79
2023/07/31 04:37:00;;;;;;;18.17;6.43;;;;;;;15.23;100.00;100852.84;4977617;28;20031;-80
2023/07/31 04:39:25;;;;;;;14.00;5.55;;;;;;;15.14;100.00;100836.22;4977381;28;20062;-78
2023/07/31 04:41:50;;;;;;;22.52;6.50;;;;;;;15.31;100.00;100858.25;4977408;28;20114;-80
2023/07/31 04:44:16;;;;;;;14.73;6.25;;;;;;;15.34;100.00;100864.03;4959860;28;20126;-76
2023/07/31 04:46:41;;;;;;;17.20;6.40;;;;;;;15.00;100.00;100811.34;4977344;28;20110;-78
2023/07/31 04:49:06;;;;;;;17.75;6.85;;;;;;;14.96;100.00;100809.97;4977337;28;20034;-80
2023/07/31 04:51:32;;;;;;;20.70;7.00;;;;;;;15.28;100.00;100858.50;4977292;28;20110;-78
2023/07/31 04:53:57;;;;;;;15.45;6.18;;;;;;;15.23;100.00;100851.06;4959598;28;20076;-75
2023/07/31 04:56:22;;;;;;;17.50;6.68;;;;;;;15.11;100.00;100821.69;4977347;28;20019;-78
2023/07/31 04:58:48;;;;;;;16.60;6.35;;;;;;;15.33;100.00;100846.75;4977112;28;20488;-79
2023/07/31 05:01:13;;;;;;;14.48;5.88;;;;;;;15.36;100.00;100843.91;4977066;28;20034;-78
2023/07/31 05:03:38;;;;;;;14.98;6.00;;;;;;;15.13;100.00;100798.97;4976991;28;20052;-78
2023/07/31 05:06:04;;;;;;;14.48;5.85;;;;;;;15.40;100.00;100842.69;4976938;28;20181;-79
2023/07/31 05:08:29;;;;;;;16.50;6.70;;;;;;;15.12;100.00;100784.31;4977033;28;20042;-79
2023/07/31 05:10:54;;;;;;;14.50;5.78;;;;;;;15.48;100.00;100831.66;4977059;28;20014;-79
2023/07/31 05:13:20;;;;;;;14.52;6.43;;;;;;;15.28;100.00;100802.09;4976823;28;20038;-78
2023/07/31 05:15:45;;;;;;;15.50;6.15;;;;;;;15.07;100.00;100763.09;4976675;28;20030;-78
2023/07/31 05:18:10;;;;;;;16.70;6.13;;;;;;;15.48;100.00;100834.25;4976773;28;20029;-76
2023/07/31 05:20:36;;;;;;;13.15;6.38;;;;;;;15.16;100.00;100780.53;4976605;28;20027;-77
2023/07/31 05:23:01;;;;;;;14.95;6.03;;;;;;;14.85;100.00;100722.44;4976714;28;20387;-76
2023/07/31 05:25:26;;;;;;;17.42;6.05;;;;;;;15.46;100.00;100815.34;4976703;28;20081;-76
2023/07/31 05:27:52;;;;;;;16.25;6.72;;;;;;;15.13;100.00;100761.72;4976362;28;20103;-76
2023/07/31 05:30:17;;;;;;;15.23;6.88;;;;;;;15.27;100.00;100776.22;4976321;28;20027;-78
2023/07/31 05:32:43;;;;;;;14.18;6.88;;;;;;;15.53;100.00;100821.69;4976510;28;20078;-77
2023/07/31 05:35:09;;;;;;;15.98;6.03;;;;;;;15.39;100.00;100802.03;4976287;28;20042;-76
2023/07/31 05:37:34;;;;;;;16.55;6.85;;;;;;;15.54;100.00;100817.31;4976620;28;20022;-78
2023/07/31 05:39:59;;;;;;;17.75;6.75;;;;;;;15.39;100.00;100801.19;4959018;28;20552;-79
2023/07/31 05:42:24;;;;;;;12.73;6.50;;;;;;;15.39;100.00;100812.44;4976436;28;20034;-77
2023/07/31 05:44:50;;;;;;;17.42;7.53;;;;;;;14.48;100.00;100675.25;4958869;28;20027;-77
2023/07/31 05:47:15;;;;;;;16.67;6.88;;;;;;;15.29;100.00;100815.94;4976368;28;20031;-76
2023/07/31 05:49:41;;;;;;;12.55;6.97;;;;;;;15.17;100.00;100792.59;4976040;28;20058;-76
2023/07/31 05:52:06;;;;;;;11.82;6.25;;;;;;;15.21;100.00;100796.56;4976095;28;20034;-74
2023/07/31 05:54:32;;;;;;;12.30;6.60;;;;;;;15.12;100.00;100776.50;4976005;28;20104;-74
2023/07/31 05:56:58;;;;;;;13.70;6.63;;;;;;;15.21;100.00;100780.13;4976065;28;20385;-73
2023/07/31 05:59:23;;;;;;;12.18;5.72;;;;;;;15.04;100.00;100773.72;4976080;28;20037;-74
2023/07/31 06:01:49;;;;;;;12.63;6.07;;;;;;;14.35;100.00;100654.63;4976009;28;20101;-74
2023/07/31 06:04:14;;;;;;;13.57;6.03;;;;;;;15.24;100.00;100794.66;4975448;28;20030;-73
2023/07/31 06:06:39;;;;;;;11.23;5.45;;;;;;;15.21;100.00;100785.34;4975844;28;20109;-74
2023/07/31 06:09:05;;;;;;;12.15;5.63;;;;;;;15.23;100.00;100780.00;4974567;28;20034;-72
2023/07/31 06:11:30;;;;;;;12.30;5.30;;;;;;;15.30;100.00;100789.78;4973828;28;20026;-75
2023/07/31 06:13:56;;;;;;;10.75;4.93;;;;;;;15.20;100.00;100766.31;4995531;28;20034;-76
2023/07/31 06:16:21;;;;;;;10.02;4.90;;;;;;;15.13;100.00;100753.94;4994728;28;20038;-74
2023/07/31 06:18:47;;;;;;;8.65;4.47;;;;;;;15.16;100.00;100751.09;4994821;28;20022;-74
2023/07/31 06:21:12;;;;;;;8.85;4.32;;;;;;;15.06;100.00;100738.03;4994723;28;20029;-77
2023/07/31 06:23:38;;;;;;;8.13;4.13;;;;;;;15.31;100.00;100782.78;4990994;28;20023;-76
2023/07/31 06:26:03;;;;;;;8.00;4.22;;;;;;;14.69;100.00;100688.25;4994860;28;20559;-77
2023/07/31 06:28:30;;;;;;;8.48;3.85;;;;;;;14.84;100.00;100712.97;4994931;28;20443;-78
2023/07/31 06:30:56;;;;;;;6.95;3.60;;;;;;;15.34;100.00;100791.19;4994455;28;20051;-79
2023/07/31 06:33:21;;;;;;;7.35;3.72;;;;;;;14.59;100.00;100663.97;4994795;28;20395;-78
2023/07/31 06:35:47;;;;;;;6.95;3.22;;;;;;;14.75;100.00;100689.50;4994439;28;20456;-78
2023/07/31 06:38:12;;;;;;;6.47;3.47;;;;;;;14.88;100.00;100697.94;4993849;28;20395;-76
2023/07/31 06:40:37;;;;;;;5.82;3.55;;;;;;;15.38;100.00;100782.16;4994728;28;20427;-77
2023/07/31 06:43:07;;;;;;;7.15;3.40;;;;;;;15.20;100.00;100737.69;4994448;28;20105;-77
2023/07/31 06:45:34;;;;;;;5.93;3.25;;;;;;;14.93;100.00;100700.97;4994276;28;20026;-79
2023/07/31 06:48:01;;;;;;;6.18;3.63;;;;;;;15.00;100.00;100688.28;4994549;28;20026;-79
2023/07/31 06:50:30;;;;;;;6.78;3.78;;;;;;;14.92;100.00;100679.34;4994527;28;20034;-79
2023/07/31 06:52:55;;;;;;;6.95;4.20;;;;;;;14.44;100.00;100597.63;4994484;28;20023;-80
2023/07/31 06:55:24;;;;;;;6.90;4.35;;;;;;;14.73;100.00;100639.41;4994276;28;20106;-80
2023/07/31 06:57:51;;;;;;;6.28;4.35;;;;;;;15.48;100.00;100748.38;4994390;28;20032;-80
2023/07/31 07:00:17;;;;;;;8.65;5.00;;;;;;;15.45;100.00;100749.47;4993992;28;20026;-79
2023/07/31 07:02:43;;;;;;;6.75;4.35;;;;;;;14.96;100.00;100658.31;4994380;28;20369;-79
2023/07/31 07:05:08;;;;;;;8.05;5.13;;;;;;;15.53;100.00;100741.00;4994306;28;20049;-79
2023/07/31 07:07:34;;;;;;;8.35;5.05;;;;;;;15.11;100.00;100691.63;4994060;28;20033;-79
2023/07/31 07:10:00;;;;;;;7.45;4.63;;;;;;;15.38;100.00;100718.88;4994130;28;20387;-80
2023/07/31 07:12:27;;;;;;;7.00;4.32;;;;;;;15.57;100.00;100741.56;4993951;28;20033;-79
2023/07/31 07:14:52;;;;;;;8.38;5.00;;;;;;;15.55;100.00;100726.09;4993713;28;20081;-79
2023/07/31 07:17:19;;;;;;;6.80;4.60;;;;;;;15.72;100.00;100738.50;4994058;28;20488;-80
2023/07/31 07:19:45;;;;;;;7.45;4.47;;;;;;;15.54;100.00;100700.19;4990155;28;20063;-81
2023/07/31 07:22:11;;;;;;;7.57;4.35;;;;;;;15.69;100.00;100719.72;4994506;28;20026;-80
2023/07/31 07:24:37;;;;;;;7.00;4.25;;;;;;;15.71;100.00;100708.22;4993872;28;20041;-79
2023/07/31 07:27:03;;;;;;;7.22;4.45;;;;;;;15.23;100.00;100631.72;4993768;28;20398;-81
2023/07/31 07:29:28;;;;;;;7.43;4.47;;;;;;;15.50;100.00;100678.81;4993746;28;20034;-84
2023/07/31 07:31:53;;;;;;;6.80;4.13;;;;;;;15.81;100.00;100733.47;4965918;28;20051;-81
2023/07/31 07:34:19;;;;;;;6.45;4.30;;;;;;;15.82;100.00;100737.72;4974182;28;20038;-77
2023/07/31 07:36:44;;;;;;;6.95;4.60;;;;;;;15.83;100.00;100728.94;4974232;28;20038;-81
2023/07/31 07:39:11;;;;;;;7.40;4.70;;;;;;;15.82;100.00;100730.72;4974239;28;20027;-80
2023/07/31 07:41:36;;;;;;;6.82;4.40;;;;;;;15.80;100.00;100737.84;4974441;28;20413;-81
2023/07/31 07:44:01;;;;;;;9.90;4.20;;;;;;;15.82;100.00;100738.53;4956998;28;20121;-80
2023/07/31 07:46:27;;;;;;;7.22;4.50;;;;;;;15.73;100.00;100715.88;4974265;28;20031;-79
2023/07/31 07:48:52;;;;;;;9.82;4.55;;;;;;;15.83;100.00;100728.94;4974068;28;20055;-79
2023/07/31 07:51:18;;;;;;;8.43;4.80;;;;;;;15.70;100.00;100708.34;4974043;28;20499;-79
2023/07/31 07:53:44;;;;;;;8.55;5.05;;;;;;;15.85;100.00;100737.47;4973900;28;20066;-79
2023/07/31 07:56:09;;;;;;;7.32;4.70;;;;;;;15.90;100.00;100724.84;4974070;28;20031;-79
2023/07/31 07:58:34;;;;;;;8.45;5.15;;;;;;;15.97;100.00;100729.41;4974013;28;20023;-79
2023/07/31 08:01:00;;;;;;;9.40;5.35;;;;;;;15.99;100.00;100711.84;4972221;28;20041;-76
2023/07/31 08:03:25;;;;;;;9.52;5.05;;;;;;;16.13;100.00;100728.06;4974706;28;20027;-76
2023/07/31 08:05:50;;;;;;;8.02;5.20;;;;;;;16.14;100.00;100725.34;4974418;28;20085;-76
2023/07/31 08:08:16;;;;;;;8.57;5.32;;;;;;;16.08;100.00;100723.25;4973768;28;20062;-75
2023/07/31 08:10:42;;;;;;;6.97;4.85;;;;;;;16.10;100.00;100728.31;4956026;28;20039;-76
2023/07/31 08:13:07;;;;;;;8.57;5.45;;;;;;;16.09;100.00;100717.06;4973813;28;20031;-74
2023/07/31 08:15:32;;;;;;;9.30;5.90;;;;;;;16.15;100.00;100724.38;4973497;28;20023;-80
2023/07/31 08:17:58;;;;;;;8.82;5.38;;;;;;;16.15;100.00;100719.16;4973894;28;20018;-76
2023/07/31 08:20:23;;;;;;;8.63;5.10;;;;;;;15.99;100.00;100690.19;4973917;28;20042;-77
2023/07/31 08:22:48;;;;;;;9.00;5.93;;;;;;;16.16;100.00;100710.38;4973679;28;20036;-77
2023/07/31 08:25:14;;;;;;;7.93;5.18;;;;;;;16.21;100.00;100710.78;4973535;28;20023;-81
2023/07/31 08:27:52;;;;;;;7.80;5.55;;;;;;;16.05;100.00;100711.31;4956188;28;20113;-77
2023/07/31 08:30:17;;;;;;;9.20;5.80;;;;;;;16.01;100.00;100703.91;4973543;28;20054;-77
2023/07/31 08:32:43;;;;;;;9.18;5.10;;;;;;;16.06;100.00;100722.56;4973349;28;20081;-76
2023/07/31 08:35:08;;;;;;;10.52;5.57;;;;;;;16.09;100.00;100719.69;4973534;28;20038;-77
2023/07/31 08:37:34;;;;;;;8.18;5.03;;;;;;;16.07;100.00;100711.19;4968436;28;20031;-76
2023/07/31 08:39:59;;;;;;;8.43;5.68;;;;;;;16.08;100.00;100710.22;4954802;29;20111;-77
2023/07/31 08:42:25;;;;;;;10.25;6.07;;;;;;;15.80;100.00;100674.53;4954895;29;20031;-77
2023/07/31 08:44:50;;;;;;;8.52;5.93;;;;;;;16.03;100.00;100718.47;4954310;29;20447;-77
2023/07/31 08:47:16;;;;;;;10.38;5.93;;;;;;;15.81;100.00;100679.59;4954143;29;20469;-77
2023/07/31 08:49:43;;;;;;;10.02;6.07;;;;;;;16.00;100.00;100716.09;4954161;29;20039;-77
2023/07/31 08:52:09;;;;;;;10.50;6.50;;;;;;;15.99;100.00;100714.47;4954044;29;20027;-77
2023/07/31 08:54:35;;;;;;;9.07;6.57;;;;;;;15.85;100.00;100696.63;4954014;29;20031;-77
2023/07/31 08:57:01;;;;;;;12.75;6.63;;;;;;;16.00;100.00;100715.28;4954181;29;20555;-75
2023/07/31 08:59:30;;;;;;;8.82;6.22;;;;;;;15.92;100.00;100696.88;4954272;29;20033;-77
2023/07/31 09:02:00;;;;;;;9.73;7.20;;;;;;;15.85;100.00;100690.59;4956068;28;20054;-76
2023/07/31 09:04:26;;;;;;;13.10;8.10;;;;;;;15.99;100.00;100709.25;4957711;29;20110;-76
2023/07/31 09:06:56;;;;;;;12.43;7.88;;;;;;;15.76;100.00;100671.38;4957511;29;20279;-77
2023/07/31 09:09:22;;;;;;;11.45;7.47;;;;;;;16.01;100.00;100711.72;4957443;29;20042;-78
2023/07/31 09:11:49;;;;;;;11.60;7.75;;;;;;;16.11;100.00;100714.34;4957562;29;20023;-79
2023/07/31 09:14:15;;;;;;;10.70;7.35;;;;;;;16.12;100.00;100703.78;4957519;29;20107;-79
2023/07/31 09:16:59;;;;;;;10.57;7.22;;;;;;;16.04;100.00;100681.03;4957442;29;20441;-77
2023/07/31 09:19:36;;;;;;;11.68;7.47;;;;;;;16.19;100.00;100683.22;4957426;29;20477;-76
2023/07/31 09:22:02;;;;;;;10.23;7.05;;;;;;;16.29;100.00;100677.06;4957262;29;20054;-79
2023/07/31 09:24:30;;;;;;;11.98;6.90;;;;;;;16.59;100.00;100716.97;4957600;29;20031;-79
2023/07/31 09:26:56;;;;;;;13.57;6.90;;;;;;;16.66;100.00;100707.63;4957393;29;20457;-79
2023/07/31 09:29:22;;;;;;;12.10;7.00;;;;;;;16.63;100.00;100674.03;4957379;29;20027;-78
2023/07/31 09:31:48;;;;;;;10.68;6.88;;;;;;;15.97;100.00;100562.72;4965972;28;20051;-77
2023/07/31 09:34:14;;;;;;;11.43;6.63;;;;;;;16.11;100.00;100582.31;4976280;28;20046;-79
2023/07/31 09:37:02;;;;;;;11.23;6.47;;;;;;;16.90;100.00;100683.75;4976413;28;20472;-79
2023/07/31 09:39:27;;;;;;;11.45;6.15;;;;;;;17.16;100.00;100704.81;4976363;28;20094;-78
2023/07/31 09:41:56;;;;;;;11.07;6.63;;;;;;;17.34;100.00;100703.13;4976542;28;20534;-78
2023/07/31 09:44:23;;;;;;;10.60;6.30;;;;;;;17.46;100.00;100690.69;4976413;28;20042;-78
2023/07/31 09:46:49;;;;;;;12.77;6.38;;;;;;;17.59;100.00;100690.34;4976267;28;20027;-79
2023/07/31 09:49:15;;;;;;;9.77;5.97;;;;;;;17.66;100.00;100673.97;4976017;28;20070;-77
2023/07/31 09:51:42;;;;;;;10.60;6.00;;;;;;;17.69;100.00;100676.31;4976292;28;20022;-77
2023/07/31 09:54:14;;;;;;;11.13;5.80;;;;;;;17.77;100.00;100694.69;4976104;28;20026;-78
2023/07/31 09:56:48;;;;;;;11.48;6.03;;;;;;;17.58;100.00;100689.53;4976166;28;20037;-78
2023/07/31 09:59:16;;;;;;;8.43;5.20;;;;;;;17.40;100.00;100660.78;4976037;28;20023;-78
2023/07/31 10:01:42;;;;;;;10.43;5.80;;;;;;;17.61;100.00;100680.63;4975743;28;20117;-78
2023/07/31 10:04:10;;;;;;;9.32;5.95;;;;;;;17.85;100.00;100703.59;4975807;28;20543;-78
2023/07/31 10:06:37;;;;;;;10.07;5.45;;;;;;;17.77;100.00;100663.34;4975887;28;20523;-77
2023/07/31 10:09:06;;;;;;;7.72;4.90;;;;;;;17.94;100.00;100693.09;4975898;28;20034;-74
2023/07/31 10:11:38;;;;;;;10.55;5.32;;;;;;;17.85;100.00;100678.28;4975847;28;20027;-76
2023/07/31 10:14:05;;;;;;;7.63;5.30;;;;;;;17.77;100.00;100658.13;4974468;28;20472;-77
2023/07/31 10:16:34;;;;;;;7.43;4.95;;;;;;;17.80;100.00;100672.69;4975469;28;20101;-78
2023/07/31 10:19:01;;;;;;;8.43;5.32;;;;;;;17.88;100.00;100698.06;4975936;28;20382;-79
2023/07/31 10:21:27;;;;;;;9.38;4.97;;;;;;;17.85;100.00;100673.06;4975120;28;20038;-79
2023/07/31 10:23:54;;;;;;;9.48;5.07;;;;;;;18.27;100.00;100680.31;4974275;28;20034;-81
2023/07/31 10:26:23;;;;;;;10.63;5.38;;;;;;;18.38;100.00;100650.50;4976511;28;20027;-81
2023/07/31 10:28:50;;;;;;;8.82;4.68;;;;;;;18.52;100.00;100681.38;4975631;28;20137;-79
2023/07/31 10:31:19;;;;;;;7.93;4.13;;;;;;;18.31;100.00;100655.53;4972905;28;20521;-80
2023/07/31 10:33:45;;;;;;;7.50;4.85;;;;;;;18.09;100.00;100646.34;4974667;28;20071;-80
2023/07/31 10:36:19;;;;;;;6.55;4.43;;;;;;;18.14;100.00;100679.88;4957989;28;20063;-80
2023/07/31 10:38:44;;;;;;;7.13;4.65;;;;;;;18.14;100.00;100685.13;4975119;28;20472;-80
2023/07/31 10:41:11;;;;;;;8.07;4.10;;;;;;;18.27;100.00;100686.38;4975281;28;20070;-80
2023/07/31 10:43:37;;;;;;;10.80;4.82;;;;;;;18.37;100.00;100670.59;4974958;28;20033;-79
2023/07/31 10:46:22;;;;;;;6.57;4.43;;;;;;;18.22;100.00;100638.97;4975277;28;20118;-79
2023/07/31 10:48:58;;;;;;;7.63;4.22;;;;;;;18.39;100.00;100694.00;4974869;28;20457;-80
2023/07/31 10:51:32;;;;;;;9.00;3.90;;;;;;;18.33;100.00;100688.41;4975049;28;20026;-80
2023/07/31 10:54:14;;;;;;;7.20;3.72;;;;;;;18.29;100.00;100688.88;4975101;28;20023;-81
2023/07/31 10:56:44;;;;;;;6.95;4.07;;;;;;;18.12;100.00;100671.38;4958516;28;20387;-82
2023/07/31 10:59:12;;;;;;;7.13;3.92;;;;;;;18.18;100.00;100679.44;4974907;28;20073;-80
2023/07/31 11:01:56;;;;;;;8.90;4.13;;;;;;;18.18;100.00;100660.31;4974791;28;20118;-80
2023/07/31 11:04:26;;;;;;;7.13;4.10;;;;;;;18.27;100.00;100670.69;4974758;28;20425;-80
2023/07/31 11:07:02;;;;;;;9.95;4.40;;;;;;;18.32;100.00;100670.25;4974794;28;20031;-80
2023/07/31 11:09:32;;;;;;;7.13;4.03;;;;;;;18.37;100.00;100669.78;4974796;28;20507;-80